createdAt,value
2023-03-05T00:01:48.015Z,23.27
2023-03-05T00:04:15.455Z,21.80
2023-03-05T00:06:42.083Z,19.10
2023-03-05T00:09:08.482Z,21.00
2023-03-05T00:11:35.187Z,21.80
2023-03-05T00:14:04.164Z,21.57
2023-03-05T00:16:31.332Z,20.23
2023-03-05T00:18:59.990Z,22.57
2023-03-05T00:21:29.250Z,19.47
2023-03-05T00:23:57.446Z,24.67
2023-03-05T00:26:26.068Z,17.90
2023-03-05T00:28:52.724Z,22.30
2023-03-05T00:31:30.432Z,23.97
2023-03-05T00:33:59.572Z,19.07
2023-03-05T00:36:26.873Z,24.67
2023-03-05T00:38:53.643Z,20.53
2023-03-05T00:41:20.172Z,19.17
2023-03-05T00:43:47.165Z,20.73
2023-03-05T00:46:13.672Z,22.53
2023-03-05T00:48:40.094Z,20.20
2023-03-05T00:51:06.763Z,20.40
2023-03-05T00:53:33.241Z,20.00
2023-03-05T00:55:59.709Z,20.10
2023-03-05T00:58:26.646Z,23.67
2023-03-05T01:00:53.082Z,23.10
2023-03-05T01:03:19.467Z,24.20
2023-03-05T01:05:46.084Z,20.80
2023-03-05T01:08:12.620Z,20.93
2023-03-05T01:10:39.113Z,18.53
2023-03-05T01:13:05.568Z,21.97
2023-03-05T01:15:32.107Z,20.90
2023-03-05T01:17:58.723Z,23.93
2023-03-05T01:20:25.309Z,21.50
2023-03-05T01:22:51.975Z,19.83
2023-03-05T01:25:18.824Z,27.23
2023-03-05T01:27:45.753Z,23.30
2023-03-05T01:30:14.172Z,19.80
2023-03-05T01:32:40.622Z,24.07
2023-03-05T01:35:08.766Z,29.30
2023-03-05T01:37:35.273Z,23.83
2023-03-05T01:40:01.900Z,24.17
2023-03-05T01:42:28.346Z,21.83
2023-03-05T01:45:02.836Z,22.63
2023-03-05T01:47:29.400Z,26.63
2023-03-05T01:49:56.488Z,25.97
2023-03-05T01:52:26.495Z,20.43
2023-03-05T01:54:56.986Z,24.70
2023-03-05T01:57:36.485Z,18.60
2023-03-05T02:00:11.708Z,23.03
2023-03-05T02:02:38.457Z,23.53
2023-03-05T02:05:13.005Z,18.53
2023-03-05T02:07:42.719Z,23.30
2023-03-05T02:10:21.630Z,27.33
2023-03-05T02:12:49.780Z,23.57
2023-03-05T02:15:16.467Z,18.87
2023-03-05T02:17:43.013Z,20.17
2023-03-05T02:20:13.411Z,23.23
2023-03-05T02:22:39.999Z,27.93
2023-03-05T02:25:21.357Z,28.30
2023-03-05T02:28:01.916Z,25.23
2023-03-05T02:30:29.371Z,27.30
2023-03-05T02:32:55.759Z,23.60
2023-03-05T02:35:22.264Z,25.10
2023-03-05T02:37:49.141Z,25.23
2023-03-05T02:40:16.178Z,27.80
2023-03-05T02:42:43.015Z,20.17
2023-03-05T02:45:10.946Z,27.43
2023-03-05T02:47:37.668Z,26.80
2023-03-05T02:50:05.207Z,22.67
2023-03-05T02:52:32.181Z,28.80
2023-03-05T02:54:59.657Z,31.67
2023-03-05T02:57:26.128Z,24.50
2023-03-05T02:59:52.722Z,25.87
2023-03-05T03:02:19.247Z,25.17
2023-03-05T03:04:45.720Z,27.37
2023-03-05T03:07:13.887Z,20.57
2023-03-05T03:09:40.786Z,28.63
2023-03-05T03:12:07.507Z,26.17
2023-03-05T03:14:39.313Z,28.03
2023-03-05T03:17:10.571Z,29.57
2023-03-05T03:19:38.532Z,24.67
2023-03-05T03:22:05.862Z,22.80
2023-03-05T03:24:33.862Z,25.83
2023-03-05T03:27:00.592Z,26.53
2023-03-05T03:29:27.425Z,24.00
2023-03-05T03:31:53.866Z,21.60
2023-03-05T03:34:20.787Z,21.20
2023-03-05T03:36:48.844Z,23.27
2023-03-05T03:39:16.161Z,20.03
2023-03-05T03:41:44.897Z,25.23
2023-03-05T03:44:12.862Z,21.93
2023-03-05T03:46:40.670Z,26.13
2023-03-05T03:49:08.541Z,20.27
2023-03-05T03:51:34.971Z,18.50
2023-03-05T03:54:01.493Z,18.23
2023-03-05T03:56:28.036Z,23.10
2023-03-05T03:58:54.566Z,21.53
2023-03-05T04:01:21.723Z,21.37
2023-03-05T04:03:48.398Z,20.77
2023-03-05T04:06:14.982Z,21.83
2023-03-05T04:08:41.554Z,21.10
2023-03-05T04:11:08.574Z,19.93
2023-03-05T04:13:34.961Z,21.20
2023-03-05T04:16:01.581Z,22.83
2023-03-05T04:18:28.299Z,20.70
2023-03-05T04:20:54.728Z,16.07
2023-03-05T04:23:21.187Z,25.73
2023-03-05T04:25:47.796Z,23.87
2023-03-05T04:28:14.253Z,19.80
2023-03-05T04:30:40.638Z,21.93
2023-03-05T04:33:07.297Z,21.70
2023-03-05T04:35:33.785Z,25.83
2023-03-05T04:38:00.389Z,22.13
2023-03-05T04:40:26.818Z,20.30
2023-03-05T04:42:53.253Z,20.90
2023-03-05T04:45:19.731Z,17.27
2023-03-05T04:47:46.208Z,22.27
2023-03-05T04:50:13.370Z,22.60
2023-03-05T04:52:44.678Z,18.40
2023-03-05T04:55:13.700Z,17.87
2023-03-05T04:57:40.200Z,20.20
2023-03-05T05:00:16.940Z,17.13
2023-03-05T05:02:49.215Z,17.60
2023-03-05T05:05:18.683Z,16.97
2023-03-05T05:07:45.370Z,20.53
2023-03-05T05:10:12.713Z,18.17
2023-03-05T05:12:39.706Z,12.07
2023-03-05T05:15:12.607Z,14.13
2023-03-05T05:17:39.677Z,14.17
2023-03-05T05:20:07.751Z,18.40
2023-03-05T05:22:35.207Z,17.03
2023-03-05T05:25:01.845Z,14.90
2023-03-05T05:27:28.322Z,10.77
2023-03-05T05:29:54.746Z,13.63
2023-03-05T05:32:23.885Z,13.20
2023-03-05T05:34:58.378Z,17.87
2023-03-05T05:37:26.093Z,8.33
2023-03-05T05:39:52.974Z,15.57
2023-03-05T05:42:21.277Z,16.13
2023-03-05T05:44:47.836Z,13.70
2023-03-05T05:47:15.889Z,11.97
2023-03-05T05:49:42.700Z,11.53
2023-03-05T05:52:09.357Z,15.20
2023-03-05T05:54:36.078Z,15.80
2023-03-05T05:57:02.673Z,17.60
2023-03-05T05:59:29.184Z,16.67
2023-03-05T06:01:55.783Z,16.87
2023-03-05T06:04:22.910Z,14.37
2023-03-05T06:06:49.416Z,13.40
2023-03-05T06:09:16.285Z,11.30
2023-03-05T06:11:42.646Z,14.87
2023-03-05T06:14:11.459Z,10.90
2023-03-05T06:16:38.120Z,15.50
2023-03-05T06:19:05.664Z,16.87
2023-03-05T06:21:32.485Z,19.40
2023-03-05T06:23:58.918Z,12.37
2023-03-05T06:26:25.990Z,13.70
2023-03-05T06:28:53.201Z,14.13
2023-03-05T06:31:22.882Z,11.73
2023-03-05T06:33:50.240Z,11.30
2023-03-05T06:36:18.720Z,13.13
2023-03-05T06:38:45.449Z,15.77
2023-03-05T06:41:15.499Z,15.93
2023-03-05T06:43:43.512Z,13.27
2023-03-05T06:46:17.056Z,14.13
2023-03-05T06:48:44.158Z,13.07
2023-03-05T06:51:18.432Z,15.43
2023-03-05T06:53:48.303Z,13.90
2023-03-05T06:56:16.713Z,13.47
2023-03-05T06:58:45.713Z,16.53
2023-03-05T07:01:12.986Z,14.03
2023-03-05T07:03:39.540Z,14.33
2023-03-05T07:06:08.241Z,12.77
2023-03-05T07:08:34.721Z,15.53
2023-03-05T07:11:01.922Z,13.50
2023-03-05T07:13:29.130Z,18.27
2023-03-05T07:15:55.759Z,17.27
2023-03-05T07:18:22.387Z,17.20
2023-03-05T07:20:48.865Z,15.63
2023-03-05T07:23:15.302Z,16.97
2023-03-05T07:25:41.707Z,14.43
2023-03-05T07:28:09.497Z,13.40
2023-03-05T07:30:36.161Z,11.63
2023-03-05T07:33:02.788Z,14.07
2023-03-05T07:35:29.210Z,16.90
2023-03-05T07:37:56.020Z,12.80
2023-03-05T07:40:22.842Z,30.40
2023-03-05T07:42:49.275Z,23.57
2023-03-05T07:45:15.766Z,17.63
2023-03-05T07:47:42.196Z,22.53
2023-03-05T07:50:10.657Z,16.47
2023-03-05T07:52:37.122Z,16.67
2023-03-05T07:55:03.871Z,13.07
2023-03-05T07:57:30.309Z,17.37
2023-03-05T07:59:56.795Z,14.93
2023-03-05T08:02:23.321Z,16.50
2023-03-05T08:04:49.839Z,14.50
2023-03-05T08:07:17.314Z,17.47
2023-03-05T08:09:43.855Z,19.03
2023-03-05T08:12:10.511Z,18.03
2023-03-05T08:14:37.860Z,14.70
2023-03-05T08:17:05.645Z,14.33
2023-03-05T08:19:33.125Z,15.13
2023-03-05T08:22:00.038Z,14.23
2023-03-05T08:24:29.680Z,17.47
2023-03-05T08:26:57.821Z,13.90
2023-03-05T08:29:26.457Z,18.83
2023-03-05T08:31:53.638Z,17.43
2023-03-05T08:34:21.385Z,10.50
2023-03-05T08:36:48.021Z,16.43
2023-03-05T08:39:14.624Z,14.77
2023-03-05T08:41:41.321Z,17.53
2023-03-05T08:44:07.971Z,14.13
2023-03-05T08:46:34.917Z,14.60
2023-03-05T08:49:01.458Z,19.80
2023-03-05T08:51:28.193Z,10.90
2023-03-05T08:53:56.255Z,17.00
2023-03-05T08:56:22.683Z,10.90
2023-03-05T08:58:49.263Z,14.17
2023-03-05T09:01:15.758Z,20.17
2023-03-05T09:03:42.133Z,11.97
2023-03-05T09:06:10.291Z,13.97
2023-03-05T09:08:36.895Z,15.77
2023-03-05T09:11:07.378Z,16.83
2023-03-05T09:13:34.942Z,16.60
2023-03-05T09:16:12.622Z,15.37
2023-03-05T09:18:40.583Z,15.70
2023-03-05T09:21:13.262Z,20.97
2023-03-05T09:23:40.714Z,13.30
2023-03-05T09:26:13.132Z,10.37
2023-03-05T09:28:40.298Z,12.07
2023-03-05T09:31:08.338Z,18.60
2023-03-05T09:33:36.083Z,17.33
2023-03-05T09:36:03.788Z,17.47
2023-03-05T09:38:32.324Z,13.90
2023-03-05T09:41:14.120Z,16.93
2023-03-05T09:44:04.100Z,11.47
2023-03-05T09:46:44.827Z,11.20
2023-03-05T09:49:21.414Z,12.60
2023-03-05T09:51:52.551Z,12.47
2023-03-05T09:54:23.459Z,16.73
2023-03-05T09:56:56.580Z,12.77
2023-03-05T09:59:29.070Z,16.07
2023-03-05T10:01:59.797Z,8.83
2023-03-05T10:04:54.841Z,15.83
2023-03-05T10:07:28.898Z,12.83
2023-03-05T10:10:31.907Z,19.20
2023-03-05T10:13:02.272Z,15.83
2023-03-05T10:15:43.613Z,12.27
2023-03-05T10:18:28.791Z,12.50
2023-03-05T10:20:58.635Z,15.23
2023-03-05T10:23:33.262Z,16.13
2023-03-05T10:26:14.828Z,14.10
2023-03-05T10:28:52.546Z,16.90
2023-03-05T10:31:31.745Z,9.53
2023-03-05T10:34:21.277Z,7.73
2023-03-05T10:37:12.211Z,16.17
2023-03-05T10:40:09.705Z,6.80
2023-03-05T10:42:49.608Z,15.13
2023-03-05T10:45:27.484Z,17.70
2023-03-05T10:47:55.474Z,13.90
2023-03-05T10:50:28.632Z,12.07
2023-03-05T10:53:10.323Z,17.13
2023-03-05T10:55:37.014Z,14.30
2023-03-05T10:58:11.745Z,17.77
2023-03-05T11:00:38.802Z,18.20
2023-03-05T11:03:10.281Z,16.03
2023-03-05T11:05:43.936Z,14.03
2023-03-05T11:08:34.593Z,13.50
2023-03-05T11:11:21.454Z,15.70
2023-03-05T11:13:57.580Z,18.33
2023-03-05T11:16:29.382Z,16.37
2023-03-05T11:19:14.102Z,13.10
2023-03-05T11:21:41.285Z,10.63
2023-03-05T11:24:19.057Z,18.77
2023-03-05T11:26:54.209Z,15.30
2023-03-05T11:29:31.670Z,15.17
2023-03-05T11:32:22.045Z,17.33
2023-03-05T11:34:48.836Z,18.43
2023-03-05T11:37:31.360Z,16.37
2023-03-05T11:40:11.538Z,20.17
2023-03-05T11:42:40.810Z,20.23
2023-03-05T11:45:16.033Z,16.20
2023-03-05T11:47:44.421Z,14.47
2023-03-05T11:50:26.556Z,16.13
2023-03-05T11:53:09.538Z,17.90
2023-03-05T11:55:57.832Z,14.60
2023-03-05T11:58:43.912Z,15.20
2023-03-05T12:01:18.992Z,11.23
2023-03-05T12:03:46.437Z,12.53
2023-03-05T12:06:12.826Z,12.60
2023-03-05T12:08:45.071Z,10.27
2023-03-05T12:11:22.224Z,14.00
2023-03-05T12:13:52.383Z,13.37
2023-03-05T12:16:30.732Z,12.93
2023-03-05T12:19:24.712Z,12.90
2023-03-05T12:21:53.211Z,12.43
2023-03-05T12:24:28.144Z,9.90
2023-03-05T12:26:59.401Z,6.97
2023-03-05T12:29:51.612Z,10.23
2023-03-05T12:32:33.925Z,11.03
2023-03-05T12:35:05.952Z,11.87
2023-03-05T12:37:32.382Z,17.00
2023-03-05T12:40:01.240Z,13.90
2023-03-05T12:42:30.609Z,11.20
2023-03-05T12:45:09.812Z,13.77
2023-03-05T12:47:40.021Z,17.57
2023-03-05T12:50:28.709Z,15.27
2023-03-05T12:52:57.808Z,11.27
2023-03-05T12:55:33.388Z,17.10
2023-03-05T12:58:17.694Z,15.53
2023-03-05T13:00:49.616Z,18.70
2023-03-05T13:03:21.053Z,12.90
2023-03-05T13:05:51.466Z,12.53
2023-03-05T13:08:35.445Z,15.47
2023-03-05T13:11:08.684Z,11.20
2023-03-05T13:13:41.327Z,10.37
2023-03-05T13:16:18.522Z,12.60
2023-03-05T13:18:48.158Z,12.00
2023-03-05T13:21:17.887Z,17.60
2023-03-05T13:23:58.869Z,15.67
2023-03-05T13:26:26.386Z,11.77
2023-03-05T13:29:15.658Z,7.93
2023-03-05T13:31:42.203Z,12.60
2023-03-05T13:34:47.680Z,11.43
2023-03-05T13:37:20.296Z,16.23
2023-03-05T13:40:23.105Z,12.80
2023-03-05T13:42:50.374Z,13.10
2023-03-05T13:45:27.185Z,9.50
2023-03-05T13:48:03.058Z,14.57
2023-03-05T13:50:31.173Z,11.37
2023-03-05T13:53:26.518Z,10.63
2023-03-05T13:55:56.421Z,11.70
2023-03-05T13:58:53.602Z,12.23
2023-03-05T14:01:26.119Z,10.30
2023-03-05T14:03:56.049Z,10.93
2023-03-05T14:06:25.688Z,10.07
2023-03-05T14:08:54.512Z,13.40
2023-03-05T14:11:21.499Z,10.03
2023-03-05T14:13:49.221Z,10.77
2023-03-05T14:16:26.004Z,6.53
2023-03-05T14:19:00.951Z,12.43
2023-03-05T14:21:45.310Z,10.10
2023-03-05T14:24:14.624Z,13.30
2023-03-05T14:26:52.814Z,11.30
2023-03-05T14:29:23.586Z,9.23
2023-03-05T14:31:53.777Z,9.97
2023-03-05T14:34:30.013Z,12.73
2023-03-05T14:37:00.841Z,15.60
2023-03-05T14:39:39.623Z,10.20
2023-03-05T14:42:25.780Z,10.93
2023-03-05T14:44:52.550Z,15.30
2023-03-05T14:47:19.042Z,8.97
2023-03-05T14:49:45.428Z,12.10
2023-03-05T14:52:17.238Z,10.80
2023-03-05T14:54:44.248Z,6.20
2023-03-05T14:57:26.611Z,8.43
2023-03-05T14:59:54.268Z,8.63
2023-03-05T15:02:23.419Z,9.03
2023-03-05T15:04:49.942Z,9.77
2023-03-05T15:07:36.607Z,12.17
2023-03-05T15:10:04.241Z,12.07
2023-03-05T15:12:30.689Z,17.60
2023-03-05T15:14:57.123Z,19.47
2023-03-05T15:17:39.550Z,13.53
2023-03-05T15:20:10.452Z,10.63
2023-03-05T15:22:37.437Z,13.47
2023-03-05T15:25:04.591Z,10.93
2023-03-05T15:27:31.167Z,13.70
2023-03-05T15:29:59.510Z,11.20
2023-03-05T15:32:28.051Z,11.17
2023-03-05T15:34:55.314Z,10.10
2023-03-05T15:37:21.997Z,10.90
2023-03-05T15:39:48.444Z,9.63
2023-03-05T15:42:14.926Z,14.23
2023-03-05T15:44:42.342Z,14.23
2023-03-05T15:47:09.030Z,13.33
2023-03-05T15:49:35.808Z,11.87
2023-03-05T15:52:02.483Z,11.03
2023-03-05T15:54:29.006Z,14.13
2023-03-05T15:56:55.522Z,8.80
2023-03-05T15:59:22.103Z,10.47
2023-03-05T16:01:50.944Z,8.97
2023-03-05T16:04:18.122Z,9.27
2023-03-05T16:06:46.997Z,12.10
2023-03-05T16:09:14.811Z,10.20
2023-03-05T16:11:48.358Z,11.53
2023-03-05T16:14:22.580Z,13.27
2023-03-05T16:16:51.091Z,17.23
2023-03-05T16:19:19.707Z,8.60
2023-03-05T16:21:46.179Z,11.33
2023-03-05T16:24:13.047Z,11.93
2023-03-05T16:26:40.634Z,10.50
2023-03-05T16:29:07.181Z,11.83
2023-03-05T16:31:35.398Z,15.23
2023-03-05T16:34:02.083Z,13.87
2023-03-05T16:36:31.082Z,9.20
2023-03-05T16:38:59.402Z,11.43
2023-03-05T16:41:26.568Z,18.17
2023-03-05T16:43:56.371Z,10.27
2023-03-05T16:46:28.197Z,11.93
2023-03-05T16:48:54.802Z,12.97
2023-03-05T16:51:21.600Z,12.77
2023-03-05T16:53:48.186Z,16.77
2023-03-05T16:56:14.870Z,13.00
2023-03-05T16:58:42.109Z,15.60
2023-03-05T17:01:20.952Z,13.90
2023-03-05T17:03:48.120Z,12.67
2023-03-05T17:06:26.154Z,17.33
2023-03-05T17:08:52.991Z,16.73
2023-03-05T17:11:20.374Z,19.30
2023-03-05T17:13:54.468Z,14.83
2023-03-05T17:16:21.856Z,17.23
2023-03-05T17:18:49.131Z,16.27
2023-03-05T17:21:15.984Z,18.63
2023-03-05T17:23:42.650Z,15.13
2023-03-05T17:26:13.210Z,14.60
2023-03-05T17:28:40.137Z,15.93
2023-03-05T17:31:07.056Z,16.40
2023-03-05T17:33:34.443Z,17.27
2023-03-05T17:36:02.231Z,15.90
2023-03-05T17:38:29.339Z,12.83
2023-03-05T17:40:56.016Z,17.60
2023-03-05T17:43:23.246Z,18.73
2023-03-05T17:45:49.821Z,16.67
2023-03-05T17:48:16.463Z,17.17
2023-03-05T17:50:44.976Z,23.50
2023-03-05T17:53:12.162Z,18.27
2023-03-05T17:55:39.160Z,18.20
2023-03-05T17:58:06.101Z,20.17
2023-03-05T18:00:33.224Z,13.07
2023-03-05T18:03:00.168Z,14.83
2023-03-05T18:05:28.289Z,16.30
2023-03-05T18:07:55.718Z,16.87
2023-03-05T18:10:25.032Z,17.40
2023-03-05T18:12:52.550Z,15.57
2023-03-05T18:15:20.519Z,18.27
2023-03-05T18:17:47.134Z,15.23
2023-03-05T18:20:36.012Z,16.80
2023-03-05T18:23:04.701Z,16.13
2023-03-05T18:25:31.699Z,15.67
2023-03-05T18:28:17.677Z,13.90
2023-03-05T18:30:45.916Z,16.70
2023-03-05T18:33:24.242Z,14.57
2023-03-05T18:35:52.500Z,14.47
2023-03-05T18:38:24.430Z,12.97
2023-03-05T18:40:52.219Z,16.23
2023-03-05T18:43:20.845Z,17.10
2023-03-05T18:45:49.065Z,11.90
2023-03-05T18:48:15.565Z,17.80
2023-03-05T18:50:42.317Z,16.43
2023-03-05T18:53:11.305Z,9.57
2023-03-05T18:55:37.685Z,14.03
2023-03-05T18:58:05.006Z,16.33
2023-03-05T19:00:32.312Z,14.83
2023-03-05T19:02:59.492Z,13.53
2023-03-05T19:05:29.301Z,11.77
2023-03-05T19:07:58.600Z,13.63
2023-03-05T19:10:25.384Z,16.03
2023-03-05T19:13:08.006Z,13.03
2023-03-05T19:15:34.457Z,11.83
2023-03-05T19:18:01.041Z,17.17
2023-03-05T19:20:27.546Z,13.87
2023-03-05T19:22:55.725Z,13.23
2023-03-05T19:25:22.464Z,15.53
2023-03-05T19:27:49.128Z,15.63
2023-03-05T19:30:16.308Z,20.13
2023-03-05T19:32:43.030Z,16.70
2023-03-05T19:35:13.841Z,15.80
2023-03-05T19:37:40.348Z,16.57
2023-03-05T19:40:07.429Z,18.70
2023-03-05T19:42:35.713Z,20.23
2023-03-05T19:45:02.898Z,11.50
2023-03-05T19:47:29.265Z,14.63
2023-03-05T19:49:55.798Z,16.60
2023-03-05T19:52:22.292Z,18.80
2023-03-05T19:54:50.757Z,20.03
2023-03-05T19:57:17.323Z,19.03
2023-03-05T19:59:44.224Z,21.97
2023-03-05T20:02:13.391Z,18.20
2023-03-05T20:04:39.889Z,17.40
2023-03-05T20:07:08.837Z,17.23
2023-03-05T20:09:35.633Z,23.37
2023-03-05T20:12:04.754Z,18.53
2023-03-05T20:14:31.282Z,18.53
2023-03-05T20:16:57.749Z,16.83
2023-03-05T20:19:24.280Z,18.40
2023-03-05T20:21:50.782Z,18.47
2023-03-05T20:24:19.022Z,17.77
2023-03-05T20:26:47.191Z,19.10
2023-03-05T20:29:17.637Z,16.17
2023-03-05T20:31:44.953Z,22.33
2023-03-05T20:34:17.837Z,21.47
2023-03-05T20:36:44.544Z,19.97
2023-03-05T20:39:11.017Z,16.77
2023-03-05T20:41:39.563Z,19.10
2023-03-05T20:44:07.164Z,25.80
2023-03-05T20:46:36.977Z,18.13
2023-03-05T20:49:04.508Z,15.50
2023-03-05T20:51:34.904Z,23.30
2023-03-05T20:54:07.375Z,15.73
2023-03-05T20:56:34.947Z,22.77
2023-03-05T20:59:05.389Z,28.37
2023-03-05T21:01:34.442Z,15.67
2023-03-05T21:04:02.120Z,21.93
2023-03-05T21:06:31.423Z,19.83
2023-03-05T21:08:58.338Z,15.87
2023-03-05T21:11:25.210Z,16.30
2023-03-05T21:13:51.658Z,14.10
2023-03-05T21:16:22.220Z,16.90
2023-03-05T21:18:49.212Z,14.90
2023-03-05T21:21:15.691Z,17.07
2023-03-05T21:23:42.265Z,18.77
2023-03-05T21:26:08.853Z,19.43
2023-03-05T21:28:35.448Z,15.63
2023-03-05T21:31:10.964Z,16.10
2023-03-05T21:33:37.729Z,16.03
2023-03-05T21:36:05.101Z,14.57
2023-03-05T21:38:33.998Z,16.20
2023-03-05T21:41:01.404Z,14.90
2023-03-05T21:43:28.953Z,13.20
2023-03-05T21:45:57.152Z,14.33
2023-03-05T21:48:25.151Z,12.53
2023-03-05T21:50:52.455Z,15.30
2023-03-05T21:53:20.180Z,15.07
2023-03-05T21:56:10.216Z,15.90
2023-03-05T21:58:36.706Z,14.00
2023-03-05T22:01:03.488Z,15.87
2023-03-05T22:03:30.335Z,16.17
2023-03-05T22:05:56.947Z,15.53
2023-03-05T22:08:24.508Z,17.03
2023-03-05T22:10:51.134Z,10.83
2023-03-05T22:13:19.947Z,14.73
2023-03-05T22:15:52.758Z,15.83
2023-03-05T22:18:22.181Z,11.53
2023-03-05T22:20:48.832Z,14.87
2023-03-05T22:23:16.601Z,19.23
2023-03-05T22:25:44.166Z,14.00
2023-03-05T22:28:12.670Z,16.77
2023-03-05T22:30:43.804Z,16.90
2023-03-05T22:33:11.037Z,14.13
2023-03-05T22:35:40.162Z,13.17
2023-03-05T22:38:07.625Z,13.37
2023-03-05T22:40:34.327Z,12.73
2023-03-05T22:43:00.721Z,15.27
2023-03-05T22:45:28.937Z,12.93
2023-03-05T22:47:55.343Z,16.37
2023-03-05T22:50:21.887Z,17.00
2023-03-05T22:52:48.306Z,12.50
2023-03-05T22:55:16.296Z,13.40
2023-03-05T22:57:43.774Z,14.83
2023-03-05T23:00:17.380Z,15.00
2023-03-05T23:02:44.836Z,17.67
2023-03-05T23:05:11.898Z,13.43
2023-03-05T23:07:40.269Z,15.77
2023-03-05T23:10:25.600Z,15.37
2023-03-05T23:12:54.665Z,18.73
2023-03-05T23:15:25.181Z,19.70
2023-03-05T23:17:51.724Z,16.23
2023-03-05T23:20:21.017Z,16.07
2023-03-05T23:22:48.699Z,17.57
2023-03-05T23:25:16.352Z,12.70
2023-03-05T23:27:43.148Z,13.97
2023-03-05T23:30:19.936Z,15.03
2023-03-05T23:32:49.433Z,14.27
2023-03-05T23:35:19.015Z,13.27
2023-03-05T23:37:45.518Z,20.77
2023-03-05T23:40:16.313Z,17.00
2023-03-05T23:42:43.270Z,16.83
2023-03-05T23:45:12.946Z,17.03
2023-03-05T23:47:39.478Z,15.03
2023-03-05T23:50:09.773Z,25.00
2023-03-05T23:52:36.255Z,14.33
2023-03-05T23:55:02.851Z,18.97
2023-03-05T23:57:29.350Z,23.27
2023-03-05T23:59:55.814Z,18.63
